Terminal Aerodrome Forecast
Issued by NWS

Home | Current Version | Previous Version | Text Only | Print | Product List | Glossary On
Versions: 1 2 3 4 5 6 7 8 9 10 11 12 13 14 15 16 17 18 19 20 21 22 23 24 25 26 27 28 29 30 31 32 33 34 35 36 37
000
FTUS44 KLIX 291156 AAA
TAFASD
TAF AMD
KASD 291156Z 2912/3012 13004KT 5SM BR OVC006
     FM291500 15010KT P6SM BKN025
     FM291700 15011KT P6SM BKN050
     FM300100 15008KT P6SM FEW120
     FM300800 15005KT P6SM OVC010=

USA.gov is the U.S. government's official web portal to all federal, state and local government web resources and services.